Time;durP1;ratioP1;P1;durP2;ratioP2;P2;SDS_P1;SDS_P2;PMS_P1;PMS_P2;Temp;Humidity;BMP_temperature;BMP_pressure;BME280_temperature;BME280_humidity;BME280_pressure;Samples;Min_cycle;Max_cycle;Signal;HPM_P1;HPM_P2
2021/10/30 00:00:13;0.00;0.00;0.62;0.00;0.00;0.62;1.73;1.30;;;26.30;28.80;;;;;;2249605;61;20380;-64
2021/10/30 00:02:58;0.00;0.00;0.62;0.00;0.00;0.62;2.13;1.73;;;26.30;28.80;;;;;;2249207;61;20484;-63
2021/10/30 00:05:44;0.00;0.00;0.62;0.00;0.00;0.62;1.73;1.30;;;26.30;28.80;;;;;;2249092;61;20712;-63
2021/10/30 00:08:29;0.00;0.00;0.62;0.00;0.00;0.62;1.80;1.60;;;26.30;28.80;;;;;;2249500;61;20367;-63
2021/10/30 00:11:14;0.00;0.00;0.62;0.00;0.00;0.62;1.73;1.50;;;26.30;28.80;;;;;;2249547;61;20381;-63
2021/10/30 00:13:58;0.00;0.00;0.62;0.00;0.00;0.62;1.70;1.30;;;26.30;28.90;;;;;;2249200;61;20369;-63
2021/10/30 00:16:44;0.00;0.00;0.62;0.00;0.00;0.62;1.63;1.20;;;26.30;28.80;;;;;;2248829;61;20384;-62
2021/10/30 00:19:29;0.00;0.00;0.62;0.00;0.00;0.62;1.50;1.20;;;26.30;28.90;;;;;;2249469;61;20477;-65
2021/10/30 00:22:13;0.00;0.00;0.62;0.00;0.00;0.62;1.70;1.30;;;26.30;28.90;;;;;;2249527;61;20420;-63
2021/10/30 00:24:58;0.00;0.00;0.62;0.00;0.00;0.62;1.80;1.20;;;26.30;28.90;;;;;;2248571;61;20364;-63
2021/10/30 00:27:43;0.00;0.00;0.62;0.00;0.00;0.62;1.70;1.30;;;26.30;28.90;;;;;;2249294;61;20408;-63
2021/10/30 00:30:27;0.00;0.00;0.62;0.00;0.00;0.62;1.80;1.50;;;26.30;28.90;;;;;;2249656;61;20369;-63
2021/10/30 00:33:13;0.00;0.00;0.62;0.00;0.00;0.62;2.07;1.57;;;26.30;28.90;;;;;;2249151;61;20380;-63
2021/10/30 00:36:00;0.00;0.00;0.62;0.00;0.00;0.62;1.93;1.30;;;26.30;28.90;;;;;;2248982;61;20597;-66
2021/10/30 00:38:44;0.00;0.00;0.62;0.00;0.00;0.62;2.13;1.47;;;26.30;28.90;;;;;;2249229;61;20404;-61
2021/10/30 00:41:29;0.00;0.00;0.62;0.00;0.00;0.62;2.77;1.50;;;26.30;28.90;;;;;;2249771;61;20364;-61
2021/10/30 00:44:14;0.00;0.00;0.62;0.00;0.00;0.62;1.90;1.60;;;26.30;28.90;;;;;;2249337;61;20364;-61
2021/10/30 00:47:00;0.00;0.00;0.62;0.00;0.00;0.62;3.00;2.00;;;26.30;28.90;;;;;;2251113;61;20395;-61
2021/10/30 00:49:46;0.00;0.00;0.62;0.00;0.00;0.62;2.30;1.93;;;26.20;28.80;;;;;;2249288;61;20590;-61
2021/10/30 00:52:33;0.00;0.00;0.62;0.00;0.00;0.62;2.43;2.03;;;26.30;28.80;;;;;;2249518;61;20373;-60
2021/10/30 00:55:22;0.00;0.00;0.62;0.00;0.00;0.62;2.97;2.70;;;26.30;28.70;;;;;;2248883;61;20655;-61
2021/10/30 00:58:10;0.00;0.00;0.62;0.00;0.00;0.62;2.37;2.00;;;26.20;28.60;;;;;;2249088;61;20736;-61
2021/10/30 01:00:55;0.00;0.00;0.62;0.00;0.00;0.62;2.83;2.20;;;26.20;28.50;;;;;;2248984;61;20623;-61
2021/10/30 01:03:41;0.00;0.00;0.62;0.00;0.00;0.62;3.00;2.70;;;26.20;28.50;;;;;;2249547;61;20363;-61
2021/10/30 01:06:27;0.00;0.00;0.62;0.00;0.00;0.62;3.37;2.90;;;26.20;28.40;;;;;;2249207;61;20501;-62
2021/10/30 01:09:12;0.00;0.00;0.62;0.00;0.00;0.62;2.83;2.53;;;26.20;28.40;;;;;;2248992;61;20787;-63
2021/10/30 01:11:57;0.00;0.00;0.62;0.00;0.00;0.62;2.80;2.60;;;26.20;28.40;;;;;;2249743;61;20440;-60
2021/10/30 01:14:42;0.00;0.00;0.62;0.00;0.00;0.62;3.77;2.70;;;26.20;28.30;;;;;;2708795;46;20729;-61
2021/10/30 01:17:27;0.00;0.00;0.62;0.00;0.00;0.62;3.50;3.10;;;26.10;28.30;;;;;;2251408;61;20395;-62
2021/10/30 01:20:21;0.00;0.00;0.62;0.00;0.00;0.62;3.20;2.90;;;26.10;28.20;;;;;;2253969;61;20366;-62
2021/10/30 01:23:06;0.00;0.00;0.62;0.00;0.00;0.62;3.30;3.00;;;26.10;28.20;;;;;;2426963;53;20368;-62
2021/10/30 01:25:57;0.00;0.00;0.62;0.00;0.00;0.62;3.60;3.10;;;26.00;28.10;;;;;;2253564;61;20408;-62
2021/10/30 01:28:41;0.00;0.00;0.62;0.00;0.00;0.62;3.53;2.73;;;26.00;28.10;;;;;;2253671;61;20431;-62
2021/10/30 01:31:26;0.00;0.00;0.62;0.00;0.00;0.62;4.13;3.07;;;26.00;28.10;;;;;;2254812;61;20368;-62
2021/10/30 01:34:11;0.00;0.00;0.62;0.00;0.00;0.62;4.00;2.70;;;26.00;28.10;;;;;;2253491;61;20375;-62
2021/10/30 01:36:56;0.00;0.00;0.62;0.00;0.00;0.62;3.50;3.03;;;26.00;28.10;;;;;;2253972;61;20375;-62
2021/10/30 01:39:41;0.00;0.00;0.62;0.00;0.00;0.62;3.73;3.07;;;26.00;28.10;;;;;;2253582;61;20439;-60
2021/10/30 01:42:26;0.00;0.00;0.62;0.00;0.00;0.62;3.63;2.97;;;25.90;28.00;;;;;;2253919;61;20424;-61
2021/10/30 01:45:10;0.00;0.00;0.62;0.00;0.00;0.62;3.17;2.87;;;25.90;28.00;;;;;;2253292;61;20363;-60
2021/10/30 01:47:55;0.00;0.00;0.62;0.00;0.00;0.62;3.90;3.60;;;25.90;28.00;;;;;;2254062;61;20391;-62
2021/10/30 01:50:41;0.00;0.00;0.62;0.00;0.00;0.62;3.13;2.83;;;25.90;28.00;;;;;;2253779;61;20431;-62
2021/10/30 01:53:27;0.00;0.00;0.62;0.00;0.00;0.62;3.60;3.30;;;25.80;27.90;;;;;;2253273;61;20375;-61
2021/10/30 01:56:12;0.00;0.00;0.62;0.00;0.00;0.62;3.50;3.20;;;25.90;28.00;;;;;;2253377;61;20597;-62
2021/10/30 01:58:57;0.00;0.00;0.62;0.00;0.00;0.62;3.93;2.70;;;25.80;27.90;;;;;;2253906;61;20363;-62
2021/10/30 02:01:41;0.00;0.00;0.62;0.00;0.00;0.62;3.80;3.13;;;25.80;27.90;;;;;;2253120;61;20372;-62
2021/10/30 02:04:27;0.00;0.00;0.62;0.00;0.00;0.62;5.53;3.77;;;25.80;27.90;;;;;;2253779;61;20368;-62
2021/10/30 02:07:12;0.00;0.00;0.62;0.00;0.00;0.62;3.80;3.40;;;25.70;27.90;;;;;;2253457;61;20399;-63
2021/10/30 02:09:58;0.00;0.00;0.62;0.00;0.00;0.62;4.33;3.27;;;25.70;27.80;;;;;;2254056;61;20402;-62
2021/10/30 02:12:43;0.00;0.00;0.62;0.00;0.00;0.62;4.17;3.77;;;25.70;27.80;;;;;;2253725;61;20364;-60
2021/10/30 02:15:28;0.00;0.00;0.62;0.00;0.00;0.62;3.63;3.33;;;25.70;27.80;;;;;;2252968;61;20364;-62
2021/10/30 02:18:13;0.00;0.00;0.62;0.00;0.00;0.62;3.57;3.10;;;25.60;27.70;;;;;;2253694;61;20406;-62
2021/10/30 02:20:58;0.00;0.00;0.62;0.00;0.00;0.62;4.20;3.03;;;25.60;27.70;;;;;;2253919;61;20439;-62
2021/10/30 02:23:42;0.00;0.00;0.62;0.00;0.00;0.62;5.33;3.67;;;25.60;27.70;;;;;;2253283;61;20585;-60
2021/10/30 02:26:29;0.00;0.00;0.62;0.00;0.00;0.62;3.80;3.33;;;25.60;27.70;;;;;;2253575;61;20767;-62
2021/10/30 02:29:14;0.00;0.00;0.62;0.00;0.00;0.62;5.23;3.57;;;25.50;27.70;;;;;;2253820;61;20368;-60
2021/10/30 02:31:58;0.00;0.00;0.62;0.00;0.00;0.62;3.70;3.40;;;25.50;27.80;;;;;;2253992;61;20367;-62
2021/10/30 02:34:43;0.00;0.00;0.62;0.00;0.00;0.62;4.60;3.20;;;25.50;27.80;;;;;;2253529;61;20437;-60
2021/10/30 02:37:28;0.00;0.00;0.62;0.00;0.00;0.62;3.53;3.23;;;25.50;27.80;;;;;;2253121;61;20427;-62
2021/10/30 02:40:13;0.00;0.00;0.62;0.00;0.00;0.62;4.50;4.03;;;25.50;27.80;;;;;;2254123;61;20360;-62
2021/10/30 02:42:58;0.00;0.00;0.62;0.00;0.00;0.62;3.73;3.43;;;25.50;27.80;;;;;;2253889;61;20443;-62
2021/10/30 02:45:43;0.00;0.00;0.62;0.00;0.00;0.62;3.40;3.10;;;25.50;27.80;;;;;;2253206;61;20495;-62
2021/10/30 02:48:27;0.00;0.00;0.62;0.00;0.00;0.62;3.80;3.40;;;25.40;27.70;;;;;;2253686;61;20624;-62
2021/10/30 02:51:12;0.00;0.00;0.62;0.00;0.00;0.62;4.00;3.40;;;25.40;27.70;;;;;;2253766;61;20735;-62
2021/10/30 02:53:59;0.00;0.00;0.62;0.00;0.00;0.62;3.47;2.93;;;25.40;27.70;;;;;;2253630;61;20363;-62
2021/10/30 02:56:43;0.00;0.00;0.62;0.00;0.00;0.62;3.70;3.40;;;25.40;27.70;;;;;;2253300;61;20394;-62
2021/10/30 02:59:29;0.00;0.00;0.62;0.00;0.00;0.62;4.70;3.80;;;25.40;27.70;;;;;;2253170;61;20359;-62
2021/10/30 03:02:14;0.00;0.00;0.62;0.00;0.00;0.62;4.87;4.20;;;25.40;27.70;;;;;;2253617;61;20444;-62
2021/10/30 03:04:58;0.00;0.00;0.62;0.00;0.00;0.62;5.33;3.90;;;25.40;27.70;;;;;;2253633;61;20589;-61
2021/10/30 03:07:43;0.00;0.00;0.62;0.00;0.00;0.62;3.73;3.43;;;25.40;27.70;;;;;;2253270;61;20395;-61
2021/10/30 03:10:28;0.00;0.00;0.62;0.00;0.00;0.62;3.90;3.37;;;25.30;27.70;;;;;;2253518;61;20407;-62
2021/10/30 03:13:15;0.00;0.00;0.62;0.00;0.00;0.62;4.57;4.03;;;25.30;27.60;;;;;;2253494;61;20457;-62
2021/10/30 03:16:01;0.00;0.00;0.62;0.00;0.00;0.62;3.60;3.30;;;25.30;27.60;;;;;;2252712;61;20391;-61
2021/10/30 03:18:48;0.00;0.00;0.62;0.00;0.00;0.62;3.70;3.37;;;25.30;27.60;;;;;;2253442;61;20367;-62
2021/10/30 03:21:33;0.00;0.00;0.62;0.00;0.00;0.62;3.77;3.47;;;25.20;27.60;;;;;;2253047;61;20364;-61
2021/10/30 03:24:18;0.00;0.00;0.62;0.00;0.00;0.62;3.67;3.37;;;25.20;27.60;;;;;;2253945;61;20359;-61
2021/10/30 03:27:04;0.00;0.00;0.62;0.00;0.00;0.62;4.00;3.60;;;25.20;27.60;;;;;;2252930;61;20395;-62
2021/10/30 03:29:49;0.00;0.00;0.62;0.00;0.00;0.62;4.77;4.30;;;25.20;27.60;;;;;;2253250;61;20364;-62
2021/10/30 03:32:35;0.00;0.00;0.62;0.00;0.00;0.62;4.10;3.60;;;25.20;27.70;;;;;;2253423;61;20581;-62
2021/10/30 03:35:20;0.00;0.00;0.62;0.00;0.00;0.62;4.10;3.70;;;25.20;27.70;;;;;;2253499;61;20484;-62
2021/10/30 03:38:06;0.00;0.00;0.62;0.00;0.00;0.62;4.40;3.53;;;25.10;27.70;;;;;;2253254;61;20600;-61
2021/10/30 03:40:50;0.00;0.00;0.62;0.00;0.00;0.62;5.33;3.70;;;25.10;27.70;;;;;;2253432;61;20395;-62
2021/10/30 03:43:36;0.00;0.00;0.62;0.00;0.00;0.62;4.50;4.00;;;25.10;27.70;;;;;;2253187;61;20788;-62
2021/10/30 03:46:20;0.00;0.00;0.62;0.00;0.00;0.62;3.90;3.37;;;25.10;27.70;;;;;;2253473;61;20519;-62
2021/10/30 03:49:06;0.00;0.00;0.62;0.00;0.00;0.62;5.10;4.33;;;25.00;27.70;;;;;;2253456;61;20367;-62
2021/10/30 03:51:51;0.00;0.00;0.62;0.00;0.00;0.62;4.53;4.13;;;25.00;27.60;;;;;;2253066;61;20368;-62
2021/10/30 03:54:36;0.00;0.00;0.62;0.00;0.00;0.62;5.00;4.60;;;25.00;27.60;;;;;;2253308;61;20474;-62
2021/10/30 03:57:21;0.00;0.00;0.62;0.00;0.00;0.62;5.73;5.23;;;25.00;27.60;;;;;;2253523;61;20423;-62
2021/10/30 04:00:08;0.00;0.00;0.62;0.00;0.00;0.62;5.77;5.10;;;25.00;27.50;;;;;;2253220;61;20391;-62
2021/10/30 04:02:58;0.00;0.00;0.62;0.00;0.00;0.62;5.73;5.13;;;24.90;27.40;;;;;;2253394;61;20627;-62
2021/10/30 04:05:44;0.00;0.00;0.62;0.00;0.00;0.62;5.77;5.27;;;24.80;27.40;;;;;;2253035;61;20375;-62
2021/10/30 04:08:29;0.00;0.00;0.62;0.00;0.00;0.62;5.77;4.70;;;24.80;27.30;;;;;;2253712;61;20426;-62
2021/10/30 04:11:15;0.00;0.00;0.62;0.00;0.00;0.62;6.47;4.97;;;24.80;27.30;;;;;;2253445;61;20718;-62
2021/10/30 04:14:00;0.00;0.00;0.62;0.00;0.00;0.62;5.50;4.93;;;24.70;27.30;;;;;;2253041;61;20367;-62
2021/10/30 04:16:44;0.00;0.00;0.62;0.00;0.00;0.62;6.50;5.90;;;24.70;27.30;;;;;;2253042;61;20727;-62
2021/10/30 04:19:29;0.00;0.00;0.62;0.00;0.00;0.62;6.30;5.70;;;24.60;27.10;;;;;;2253630;61;20359;-62
2021/10/30 04:22:15;0.00;0.00;0.62;0.00;0.00;0.62;5.93;5.37;;;24.60;27.00;;;;;;2253046;61;20391;-62
2021/10/30 04:25:00;0.00;0.00;0.62;0.00;0.00;0.62;6.07;5.50;;;24.50;26.90;;;;;;2253257;61;20376;-62
2021/10/30 04:27:44;0.00;0.00;0.62;0.00;0.00;0.62;5.67;5.13;;;24.50;27.00;;;;;;2253479;61;20659;-62
2021/10/30 04:30:29;0.00;0.00;0.62;0.00;0.00;0.62;6.50;5.90;;;24.40;26.90;;;;;;2253885;61;20679;-68
2021/10/30 04:33:16;0.00;0.00;0.62;0.00;0.00;0.62;6.60;6.00;;;24.40;26.90;;;;;;2253288;61;20392;-62
2021/10/30 04:36:03;0.00;0.00;0.62;0.00;0.00;0.62;6.93;6.10;;;24.30;26.80;;;;;;2252592;61;20402;-62
2021/10/30 04:38:49;0.00;0.00;0.62;0.00;0.00;0.62;5.70;5.13;;;24.30;26.80;;;;;;2253142;61;20471;-62
2021/10/30 04:41:35;0.00;0.00;0.62;0.00;0.00;0.62;5.93;5.33;;;24.20;26.80;;;;;;2253467;61;20367;-62
2021/10/30 04:44:19;0.00;0.00;0.62;0.00;0.00;0.62;5.87;5.27;;;24.20;26.90;;;;;;2252964;61;20694;-62
2021/10/30 04:47:05;0.00;0.00;0.62;0.00;0.00;0.62;6.03;5.53;;;24.10;26.80;;;;;;2253624;61;20783;-61
2021/10/30 04:49:51;0.00;0.00;0.62;0.00;0.00;0.62;6.33;5.73;;;24.10;26.90;;;;;;2254288;61;20767;-62
2021/10/30 04:52:36;0.00;0.00;0.62;0.00;0.00;0.62;5.80;5.30;;;24.10;26.90;;;;;;2254223;61;20364;-62
2021/10/30 04:55:22;0.00;0.00;0.62;0.00;0.00;0.62;5.83;5.00;;;24.00;26.90;;;;;;2253676;61;20379;-62
2021/10/30 04:58:07;0.00;0.00;0.62;0.00;0.00;0.62;6.90;5.83;;;24.00;26.90;;;;;;2253439;61;20383;-62
2021/10/30 05:00:52;0.00;0.00;0.62;0.00;0.00;0.62;5.67;5.17;;;24.00;26.90;;;;;;2254184;61;20783;-62
2021/10/30 05:03:36;0.00;0.00;0.62;0.00;0.00;0.62;6.57;5.50;;;23.90;26.70;;;;;;2254189;61;20360;-62
2021/10/30 05:06:21;0.00;0.00;0.62;0.00;0.00;0.62;6.77;5.40;;;23.90;26.80;;;;;;2253358;61;20746;-62
2021/10/30 05:09:05;0.00;0.00;0.62;0.00;0.00;0.62;6.13;5.53;;;23.90;26.80;;;;;;2253941;61;20476;-61
2021/10/30 05:11:51;0.00;0.00;0.62;0.00;0.00;0.62;5.70;5.20;;;23.80;26.80;;;;;;2254124;61;20358;-62
2021/10/30 05:14:36;0.00;0.00;0.62;0.00;0.00;0.62;5.33;4.83;;;23.80;26.80;;;;;;2253600;61;20442;-61
2021/10/30 05:17:20;0.00;0.00;0.62;0.00;0.00;0.62;6.73;6.03;;;23.80;26.90;;;;;;2253679;61;20384;-62
2021/10/30 05:20:07;0.00;0.00;0.62;0.00;0.00;0.62;5.57;5.00;;;23.80;26.90;;;;;;2299559;58;20419;-62
2021/10/30 05:22:51;0.00;0.00;0.62;0.00;0.00;0.62;5.60;4.87;;;23.80;27.00;;;;;;2252156;61;20379;-61
2021/10/30 05:25:36;0.00;0.00;0.62;0.00;0.00;0.62;5.20;4.70;;;23.80;27.00;;;;;;2254176;61;20367;-61
2021/10/30 05:28:21;0.00;0.00;0.62;0.00;0.00;0.62;5.93;5.00;;;23.70;27.00;;;;;;2253490;61;20467;-61
2021/10/30 05:31:06;0.00;0.00;0.62;0.00;0.00;0.62;6.50;4.97;;;23.70;27.00;;;;;;2269749;61;20735;-61
2021/10/30 05:33:51;0.00;0.00;0.62;0.00;0.00;0.62;4.87;4.43;;;23.70;27.10;;;;;;2257792;61;20362;-61
2021/10/30 05:36:54;0.00;0.00;0.62;0.00;0.00;0.62;5.67;4.90;;;23.70;27.10;;;;;;2257724;61;20753;-62
2021/10/30 05:39:54;0.00;0.00;0.62;0.00;0.00;0.62;5.40;4.90;;;23.80;27.20;;;;;;2257621;61;20601;-62
2021/10/30 05:42:41;0.00;0.00;0.62;0.00;0.00;0.62;5.60;5.10;;;23.70;27.20;;;;;;2257402;61;20363;-62
2021/10/30 05:45:27;0.00;0.00;0.62;0.00;0.00;0.62;6.40;5.80;;;23.70;27.20;;;;;;2257639;61;20362;-61
2021/10/30 05:48:14;0.00;0.00;0.62;0.00;0.00;0.62;6.53;5.93;;;23.70;27.20;;;;;;2257913;61;20476;-60
2021/10/30 05:50:59;0.00;0.00;0.62;0.00;0.00;0.62;9.17;6.47;;;23.70;27.10;;;;;;2257551;61;20394;-59
2021/10/30 05:53:43;0.00;0.00;0.62;0.00;0.00;0.62;7.43;6.73;;;23.70;27.10;;;;;;2257982;61;20387;-59
2021/10/30 05:56:28;0.00;0.00;0.62;0.00;0.00;0.62;6.57;5.87;;;23.70;27.10;;;;;;2257602;61;20606;-61
2021/10/30 05:59:12;0.00;0.00;0.62;0.00;0.00;0.62;6.03;5.50;;;23.70;27.10;;;;;;2258025;61;20637;-60
2021/10/30 06:01:58;0.00;0.00;0.62;0.00;0.00;0.62;5.80;5.00;;;23.70;27.10;;;;;;2257686;61;20359;-60
2021/10/30 06:04:43;0.00;0.00;0.62;0.00;0.00;0.62;5.77;5.00;;;23.70;27.20;;;;;;2257303;61;20441;-61
2021/10/30 06:07:27;0.00;0.00;0.62;0.00;0.00;0.62;6.30;5.70;;;23.70;27.20;;;;;;2258095;61;20434;-60
2021/10/30 06:10:12;0.00;0.00;0.62;0.00;0.00;0.62;6.13;5.27;;;23.70;27.20;;;;;;2257961;61;20758;-60
2021/10/30 06:12:57;0.00;0.00;0.62;0.00;0.00;0.62;5.83;5.23;;;23.60;27.10;;;;;;2257514;61;20362;-61
2021/10/30 06:15:41;0.00;0.00;0.62;0.00;0.00;0.62;5.70;5.20;;;23.60;27.10;;;;;;2257617;61;20666;-60
2021/10/30 06:18:27;0.00;0.00;0.62;0.00;0.00;0.62;7.03;6.33;;;23.70;27.20;;;;;;2257800;61;20710;-60
2021/10/30 06:21:12;0.00;0.00;0.62;0.00;0.00;0.62;5.87;5.27;;;23.60;27.20;;;;;;2257786;61;20486;-60
2021/10/30 06:23:59;0.00;0.00;0.62;0.00;0.00;0.62;5.50;5.00;;;23.70;27.20;;;;;;2257691;61;20739;-60
2021/10/30 06:26:43;0.00;0.00;0.62;0.00;0.00;0.62;6.20;5.60;;;23.70;27.20;;;;;;2256610;61;20450;-60
2021/10/30 06:29:28;0.00;0.00;0.62;0.00;0.00;0.62;6.03;5.50;;;23.70;27.20;;;;;;2258220;61;20397;-59
2021/10/30 06:32:12;0.00;0.00;0.62;0.00;0.00;0.62;5.40;4.90;;;23.70;27.30;;;;;;2258094;61;20398;-59
2021/10/30 06:34:58;0.00;0.00;0.62;0.00;0.00;0.62;5.80;5.20;;;23.70;27.30;;;;;;2256694;61;20414;-60
2021/10/30 06:37:43;0.00;0.00;0.62;0.00;0.00;0.62;5.50;4.97;;;23.70;27.30;;;;;;2257489;61;20398;-60
2021/10/30 06:40:28;0.00;0.00;0.62;0.00;0.00;0.62;5.73;5.17;;;23.70;27.30;;;;;;2258010;61;20718;-60
2021/10/30 06:43:12;0.00;0.00;0.62;0.00;0.00;0.62;5.63;5.13;;;23.70;27.30;;;;;;2257494;61;20363;-60
2021/10/30 06:45:59;0.00;0.00;0.62;0.00;0.00;0.62;5.87;5.30;;;23.70;27.30;;;;;;2257378;61;20578;-60
2021/10/30 06:48:43;0.00;0.00;0.62;0.00;0.00;0.62;6.70;5.37;;;23.70;27.30;;;;;;2257345;61;20352;-60
2021/10/30 06:51:30;0.00;0.00;0.62;0.00;0.00;0.62;6.30;5.70;;;23.70;27.30;;;;;;2258014;61;20371;-62
2021/10/30 06:54:14;0.00;0.00;0.62;0.00;0.00;0.62;6.10;5.50;;;23.70;27.30;;;;;;2257650;61;20367;-61
2021/10/30 06:56:58;0.00;0.00;0.62;0.00;0.00;0.62;6.40;5.80;;;23.70;27.30;;;;;;2257074;61;20641;-61
2021/10/30 06:59:43;0.00;0.00;0.62;0.00;0.00;0.62;4.87;4.37;;;23.70;27.30;;;;;;2257495;61;20362;-62
2021/10/30 07:02:28;0.00;0.00;0.62;0.00;0.00;0.62;5.07;4.57;;;23.70;27.30;;;;;;2257842;61;20719;-62
2021/10/30 07:05:13;0.00;0.00;0.62;0.00;0.00;0.62;5.73;5.13;;;23.70;27.30;;;;;;2257163;61;20403;-59
2021/10/30 07:07:59;0.00;0.00;0.62;0.00;0.00;0.62;6.80;6.10;;;23.70;27.20;;;;;;2257417;61;20664;-62
2021/10/30 07:10:43;0.00;0.00;0.62;0.00;0.00;0.62;6.20;5.47;;;23.70;27.10;;;;;;2257297;61;20370;-63
2021/10/30 07:13:28;0.00;0.00;0.62;0.00;0.00;0.62;6.27;5.67;;;23.70;27.10;;;;;;2257893;61;20739;-61
2021/10/30 07:16:15;0.00;0.00;0.62;0.00;0.00;0.62;6.60;5.50;;;23.70;27.10;;;;;;2257312;61;20430;-61
2021/10/30 07:19:00;0.00;0.00;0.62;0.00;0.00;0.62;6.17;5.53;;;23.70;27.20;;;;;;2257053;61;20355;-58
2021/10/30 07:21:45;0.00;0.00;0.62;0.00;0.00;0.62;5.87;5.27;;;23.70;27.20;;;;;;2257053;61;20428;-60
2021/10/30 07:24:31;0.00;0.00;0.62;0.00;0.00;0.62;6.23;5.63;;;23.70;27.20;;;;;;2258012;61;20351;-63
2021/10/30 07:27:17;0.00;0.00;0.62;0.00;0.00;0.62;6.40;5.80;;;23.70;27.20;;;;;;2256997;61;20891;-63
2021/10/30 07:30:02;0.00;0.00;0.62;0.00;0.00;0.62;5.80;4.80;;;23.70;27.20;;;;;;2257529;61;20366;-64
2021/10/30 07:32:53;0.00;0.00;0.62;0.00;0.00;0.62;6.70;5.57;;;23.70;27.20;;;;;;2257677;61;20720;-62
2021/10/30 07:35:38;0.00;0.00;0.62;0.00;0.00;0.62;7.53;5.70;;;23.80;27.20;;;;;;2257414;61;20518;-63
2021/10/30 07:38:23;0.00;0.00;0.62;0.00;0.00;0.62;5.07;4.57;;;23.80;27.20;;;;;;2257517;61;20720;-65
2021/10/30 07:41:09;0.00;0.00;0.62;0.00;0.00;0.62;6.27;5.67;;;23.80;27.20;;;;;;2257070;61;20405;-62
2021/10/30 07:43:54;0.00;0.00;0.62;0.00;0.00;0.62;5.40;4.90;;;23.80;27.30;;;;;;2257314;61;20362;-62
2021/10/30 07:46:39;0.00;0.00;0.62;0.00;0.00;0.62;5.00;4.13;;;23.80;27.30;;;;;;2257521;61;20455;-64
2021/10/30 07:49:24;0.00;0.00;0.62;0.00;0.00;0.62;5.27;4.70;;;23.80;27.30;;;;;;2257086;61;20589;-64
2021/10/30 07:52:10;0.00;0.00;0.62;0.00;0.00;0.62;5.30;4.80;;;23.90;27.40;;;;;;2257478;61;20406;-63
2021/10/30 07:54:55;0.00;0.00;0.62;0.00;0.00;0.62;5.10;4.60;;;23.90;27.40;;;;;;2257476;61;20377;-62
2021/10/30 07:57:41;0.00;0.00;0.62;0.00;0.00;0.62;5.10;4.60;;;23.90;27.40;;;;;;2257613;61;20418;-63
2021/10/30 08:00:26;0.00;0.00;0.62;0.00;0.00;0.62;5.30;4.10;;;23.90;27.40;;;;;;2257589;61;20725;-63
2021/10/30 08:03:11;0.00;0.00;0.62;0.00;0.00;0.62;6.63;4.40;;;24.00;27.50;;;;;;2256988;61;20406;-64
2021/10/30 08:05:55;0.00;0.00;0.62;0.00;0.00;0.62;5.63;4.60;;;24.00;27.50;;;;;;2257282;61;20363;-63
2021/10/30 08:08:39;0.00;0.00;0.62;0.00;0.00;0.62;5.00;4.10;;;24.00;27.50;;;;;;2257745;61;20637;-63
2021/10/30 08:11:25;0.00;0.00;0.62;0.00;0.00;0.62;4.20;3.63;;;24.00;27.50;;;;;;2256987;61;20474;-65
2021/10/30 08:14:11;0.00;0.00;0.62;0.00;0.00;0.62;4.83;4.43;;;24.00;27.50;;;;;;2257426;61;20368;-62
2021/10/30 08:16:56;0.00;0.00;0.62;0.00;0.00;0.62;3.67;3.30;;;24.10;27.60;;;;;;2257383;61;20431;-62
2021/10/30 08:19:40;0.00;0.00;0.62;0.00;0.00;0.62;4.80;4.23;;;24.10;27.60;;;;;;2256009;61;20375;-63
2021/10/30 08:22:25;0.00;0.00;0.62;0.00;0.00;0.62;4.40;4.00;;;24.10;27.50;;;;;;2253395;61;20663;-64
2021/10/30 08:25:10;0.00;0.00;0.62;0.00;0.00;0.62;4.53;3.90;;;24.10;27.50;;;;;;2252633;61;20412;-64
2021/10/30 08:27:55;0.00;0.00;0.62;0.00;0.00;0.62;5.17;4.13;;;24.20;27.60;;;;;;2253591;61;20392;-63
2021/10/30 08:30:41;0.00;0.00;0.62;0.00;0.00;0.62;4.17;3.77;;;24.20;27.60;;;;;;2253761;61;20367;-65
2021/10/30 08:33:26;0.00;0.00;0.62;0.00;0.00;0.62;3.50;3.10;;;24.20;27.60;;;;;;2252963;61;20817;-64
2021/10/30 08:36:11;0.00;0.00;0.62;0.00;0.00;0.62;4.40;4.00;;;24.20;27.60;;;;;;2253051;61;20419;-64
2021/10/30 08:38:57;0.00;0.00;0.62;0.00;0.00;0.62;4.50;3.70;;;24.30;27.60;;;;;;2253460;61;20388;-63
2021/10/30 08:41:42;0.00;0.00;0.62;0.00;0.00;0.62;4.00;3.53;;;24.30;27.60;;;;;;2253148;61;20368;-62
2021/10/30 08:44:27;0.00;0.00;0.62;0.00;0.00;0.62;3.77;3.40;;;24.30;27.60;;;;;;2253288;61;20387;-63
2021/10/30 08:47:14;0.00;0.00;0.62;0.00;0.00;0.62;4.27;3.70;;;24.30;27.60;;;;;;2252584;61;20611;-64
2021/10/30 08:49:59;0.00;0.00;0.62;0.00;0.00;0.62;4.40;4.00;;;24.30;27.60;;;;;;2253732;61;20476;-64
2021/10/30 08:52:44;0.00;0.00;0.62;0.00;0.00;0.62;3.60;3.30;;;24.40;27.60;;;;;;2253409;61;20395;-64
2021/10/30 08:55:29;0.00;0.00;0.62;0.00;0.00;0.62;3.60;3.30;;;24.40;27.70;;;;;;2252671;61;20407;-64
2021/10/30 08:58:15;0.00;0.00;0.62;0.00;0.00;0.62;4.00;3.70;;;24.40;27.60;;;;;;2253182;61;20387;-65
2021/10/30 09:01:04;0.00;0.00;0.62;0.00;0.00;0.62;4.10;3.70;;;24.40;27.60;;;;;;2253372;61;20375;-65
2021/10/30 09:03:58;0.00;0.00;0.62;0.00;0.00;0.62;4.20;3.80;;;24.40;27.60;;;;;;2253139;61;20387;-64
2021/10/30 09:06:55;0.00;0.00;0.62;0.00;0.00;0.62;4.03;3.57;;;24.40;27.60;;;;;;2253079;61;20431;-63
2021/10/30 09:09:41;0.00;0.00;0.62;0.00;0.00;0.62;3.50;3.20;;;24.40;27.60;;;;;;2252893;61;20383;-63
2021/10/30 09:12:26;0.00;0.00;0.62;0.00;0.00;0.62;4.30;3.27;;;24.40;27.60;;;;;;2253619;61;20448;-64
2021/10/30 09:15:11;0.00;0.00;0.62;0.00;0.00;0.62;3.03;2.73;;;24.50;27.70;;;;;;2253190;61;20436;-63
2021/10/30 09:17:55;0.00;0.00;0.62;0.00;0.00;0.62;4.10;3.70;;;24.50;27.70;;;;;;2252799;61;20384;-62
2021/10/30 09:20:41;0.00;0.00;0.62;0.00;0.00;0.62;3.80;3.33;;;24.50;27.70;;;;;;2253175;61;20359;-62
2021/10/30 09:23:31;0.00;0.00;0.62;0.00;0.00;0.62;3.40;3.10;;;24.50;27.70;;;;;;2253423;61;20368;-62
2021/10/30 09:26:19;0.00;0.00;0.62;0.00;0.00;0.62;3.87;3.53;;;24.50;27.70;;;;;;2253119;61;20399;-62
2021/10/30 09:29:09;0.00;0.00;0.62;0.00;0.00;0.62;3.60;3.30;;;24.50;27.70;;;;;;2252982;61;20352;-65
2021/10/30 09:32:09;0.00;0.00;0.62;0.00;0.00;0.62;3.10;2.77;;;24.50;27.70;;;;;;2252733;61;20436;-64
2021/10/30 09:34:54;0.00;0.00;0.62;0.00;0.00;0.62;3.00;2.70;;;24.50;27.70;;;;;;2253475;61;20584;-62
2021/10/30 09:37:40;0.00;0.00;0.62;0.00;0.00;0.62;3.70;3.10;;;24.50;27.70;;;;;;2253890;61;20452;-64
2021/10/30 09:40:27;0.00;0.00;0.62;0.00;0.00;0.62;3.00;2.70;;;24.50;27.70;;;;;;2253471;61;20471;-63
2021/10/30 09:43:15;0.00;0.00;0.62;0.00;0.00;0.62;3.40;3.10;;;24.50;27.70;;;;;;2253793;61;20633;-64
2021/10/30 09:46:09;0.00;0.00;0.62;0.00;0.00;0.62;3.17;2.87;;;24.50;27.70;;;;;;2253486;61;20399;-65
2021/10/30 09:48:55;0.00;0.00;0.62;0.00;0.00;0.62;3.23;2.93;;;24.60;27.70;;;;;;2254065;61;20424;-64
2021/10/30 09:51:42;0.00;0.00;0.62;0.00;0.00;0.62;3.97;3.23;;;24.60;27.70;;;;;;2253896;61;20380;-64
2021/10/30 09:54:34;0.00;0.00;0.62;0.00;0.00;0.62;3.10;2.80;;;24.60;27.70;;;;;;2253550;61;20356;-65
2021/10/30 09:57:28;0.00;0.00;0.62;0.00;0.00;0.62;2.70;2.50;;;24.60;27.70;;;;;;2253512;61;20404;-63
2021/10/30 10:00:13;0.00;0.00;0.62;0.00;0.00;0.62;3.27;2.97;;;24.60;27.70;;;;;;2254079;61;20360;-64
2021/10/30 10:03:03;0.00;0.00;0.62;0.00;0.00;0.62;6.33;3.40;;;24.60;27.70;;;;;;2253588;61;20632;-65
2021/10/30 10:05:48;0.00;0.00;0.62;0.00;0.00;0.62;3.07;2.70;;;24.60;27.70;;;;;;2253471;61;20364;-65
2021/10/30 10:08:36;0.00;0.00;0.62;0.00;0.00;0.62;3.23;2.90;;;24.60;27.70;;;;;;2253406;61;20389;-65
2021/10/30 10:11:23;0.00;0.00;0.62;0.00;0.00;0.62;3.00;2.70;;;24.60;27.70;;;;;;2254081;61;20368;-64
2021/10/30 10:14:09;0.00;0.00;0.62;0.00;0.00;0.62;5.10;2.87;;;24.60;27.70;;;;;;2253925;61;20586;-64
2021/10/30 10:16:56;0.00;0.00;0.62;0.00;0.00;0.62;2.93;2.63;;;24.60;27.70;;;;;;2253165;61;20456;-63
2021/10/30 10:19:42;0.00;0.00;0.62;0.00;0.00;0.62;2.90;2.50;;;24.60;27.70;;;;;;2253720;61;20631;-65
2021/10/30 10:22:27;0.00;0.00;0.62;0.00;0.00;0.62;3.40;3.00;;;24.60;27.70;;;;;;2253889;61;20609;-64
2021/10/30 10:25:34;0.00;0.00;0.62;0.00;0.00;0.62;3.17;2.70;;;24.60;27.70;;;;;;2253341;61;20363;-62
2021/10/30 10:28:26;0.00;0.00;0.62;0.00;0.00;0.62;3.00;2.70;;;24.60;27.70;;;;;;2253606;61;20383;-64
2021/10/30 10:31:23;0.00;0.00;0.62;0.00;0.00;0.62;2.50;2.30;;;24.60;27.70;;;;;;2253239;61;20367;-63
2021/10/30 10:34:10;0.00;0.00;0.62;0.00;0.00;0.62;2.97;2.77;;;24.70;27.80;;;;;;2255957;61;20437;-61
2021/10/30 10:37:21;0.00;0.00;0.62;0.00;0.00;0.62;2.73;2.27;;;24.70;27.80;;;;;;2253540;61;20388;-63
2021/10/30 10:40:27;0.00;0.00;0.62;0.00;0.00;0.62;2.50;2.10;;;24.70;27.80;;;;;;2253558;61;20447;-64
2021/10/30 10:43:44;0.00;0.00;0.62;0.00;0.00;0.62;3.13;2.83;;;24.70;27.80;;;;;;2253466;61;20384;-65
2021/10/30 10:46:29;0.00;0.00;0.62;0.00;0.00;0.62;2.57;2.37;;;24.70;27.80;;;;;;2253192;61;20387;-64
2021/10/30 10:49:15;0.00;0.00;0.62;0.00;0.00;0.62;2.40;2.20;;;24.70;27.80;;;;;;2253572;61;20404;-63
2021/10/30 10:52:16;0.00;0.00;0.62;0.00;0.00;0.62;3.17;2.50;;;24.70;27.80;;;;;;2253869;61;20359;-64
2021/10/30 10:55:05;0.00;0.00;0.62;0.00;0.00;0.62;2.90;2.60;;;24.70;27.80;;;;;;2253264;61;20407;-64